createdAt,value
2019-05-10T00:00:27.268Z,11.91
2019-05-10T00:03:13.621Z,11.87
2019-05-10T00:06:00.523Z,11.84
2019-05-10T00:08:46.877Z,11.88
2019-05-10T00:11:25.931Z,11.97
2019-05-10T00:13:56.125Z,11.89
2019-05-10T00:16:25.652Z,11.92
2019-05-10T00:18:54.502Z,11.88
2019-05-10T00:21:23.017Z,11.79
2019-05-10T00:23:51.469Z,11.79
2019-05-10T00:26:19.950Z,11.83
2019-05-10T00:28:48.387Z,11.96
2019-05-10T00:31:16.793Z,11.85
2019-05-10T00:33:45.239Z,11.61
2019-05-10T00:36:13.810Z,11.76
2019-05-10T00:38:42.309Z,11.91
2019-05-10T00:41:10.776Z,11.91
2019-05-10T00:43:39.250Z,11.94
2019-05-10T00:46:07.682Z,11.79
2019-05-10T00:48:36.100Z,11.83
2019-05-10T00:51:04.620Z,11.79
2019-05-10T00:53:33.102Z,11.86
2019-05-10T00:56:01.521Z,12.03
2019-05-10T00:58:29.942Z,11.90
2019-05-10T01:00:58.508Z,12.16
2019-05-10T01:03:27.069Z,11.96
2019-05-10T01:05:55.508Z,12.05
2019-05-10T01:08:24.024Z,12.01
2019-05-10T01:10:52.440Z,12.11
2019-05-10T01:13:20.835Z,11.92
2019-05-10T01:15:49.399Z,11.87
2019-05-10T01:18:17.834Z,11.89
2019-05-10T01:20:46.308Z,11.89
2019-05-10T01:23:14.711Z,11.93
2019-05-10T01:25:43.681Z,11.91
2019-05-10T01:28:12.109Z,11.84
2019-05-10T01:30:40.855Z,11.79
2019-05-10T01:33:09.285Z,11.79
2019-05-10T01:35:37.692Z,11.87
2019-05-10T01:38:06.130Z,11.96
2019-05-10T01:40:34.618Z,11.98
2019-05-10T01:43:03.057Z,11.69
2019-05-10T01:45:31.484Z,11.82
2019-05-10T01:47:59.936Z,11.93
2019-05-10T01:50:28.441Z,11.76
2019-05-10T01:52:56.846Z,11.58
2019-05-10T01:55:25.290Z,11.84
2019-05-10T01:57:53.732Z,11.77
2019-05-10T02:00:22.376Z,11.61
2019-05-10T02:02:50.841Z,11.74
2019-05-10T02:05:19.440Z,11.84
2019-05-10T02:07:47.950Z,11.69
2019-05-10T02:10:16.730Z,11.70
2019-05-10T02:12:45.212Z,11.59
2019-05-10T02:15:14.597Z,11.38
2019-05-10T02:17:43.096Z,11.22
2019-05-10T02:20:12.368Z,11.35
2019-05-10T02:22:40.854Z,11.33
2019-05-10T02:25:09.471Z,11.15
2019-05-10T02:27:37.941Z,11.35
2019-05-10T02:30:08.033Z,11.25
2019-05-10T02:32:36.479Z,11.44
2019-05-10T02:35:07.692Z,11.41
2019-05-10T02:37:36.097Z,11.46
2019-05-10T02:40:05.976Z,11.47
2019-05-10T02:42:34.977Z,11.66
2019-05-10T02:45:05.270Z,11.29
2019-05-10T02:47:33.709Z,11.18
2019-05-10T02:50:02.209Z,11.21
2019-05-10T02:52:31.231Z,11.38
2019-05-10T02:55:00.637Z,11.29
2019-05-10T02:57:29.602Z,11.01
2019-05-10T02:59:59.190Z,11.06
2019-05-10T03:02:28.280Z,10.92
2019-05-10T03:04:58.265Z,11.01
2019-05-10T03:07:27.034Z,10.94
2019-05-10T03:09:55.419Z,10.94
2019-05-10T03:12:26.111Z,10.81
2019-05-10T03:14:56.761Z,10.82
2019-05-10T03:17:26.548Z,11.06
2019-05-10T03:19:55.194Z,10.89
2019-05-10T03:22:25.967Z,10.78
2019-05-10T03:24:54.567Z,10.91
2019-05-10T03:27:22.952Z,10.68
2019-05-10T03:29:51.784Z,10.91
2019-05-10T03:32:20.539Z,10.66
2019-05-10T03:34:49.019Z,10.90
2019-05-10T03:37:17.818Z,10.66
2019-05-10T03:39:46.968Z,10.90
2019-05-10T03:42:15.762Z,10.57
2019-05-10T03:44:44.557Z,10.71
2019-05-10T03:47:12.968Z,10.61
2019-05-10T03:49:41.446Z,10.70
2019-05-10T03:52:09.960Z,10.55
2019-05-10T03:54:38.376Z,10.58
2019-05-10T03:57:13.830Z,10.47
2019-05-10T03:59:37.045Z,10.79
2019-05-10T04:02:05.540Z,10.78
2019-05-10T04:04:34.062Z,10.68
2019-05-10T04:07:02.491Z,10.74
2019-05-10T04:09:30.950Z,10.87
2019-05-10T04:11:59.400Z,10.75
2019-05-10T04:14:27.803Z,10.80
2019-05-10T04:16:56.236Z,10.86
2019-05-10T04:19:24.642Z,10.74
2019-05-10T04:21:53.078Z,10.68
2019-05-10T04:24:21.530Z,10.42
2019-05-10T04:26:49.938Z,10.50
2019-05-10T04:29:18.388Z,10.49
2019-05-10T04:31:46.822Z,10.33
2019-05-10T04:34:15.323Z,10.51
2019-05-10T04:36:43.728Z,10.49
2019-05-10T04:39:12.310Z,10.55
2019-05-10T04:41:40.742Z,10.84
2019-05-10T04:44:09.299Z,10.52
2019-05-10T04:46:37.712Z,10.66
2019-05-10T04:49:06.143Z,10.76
2019-05-10T04:51:34.586Z,10.66
2019-05-10T04:54:02.966Z,10.63
2019-05-10T04:56:31.380Z,10.72
2019-05-10T04:58:59.773Z,10.66
2019-05-10T05:01:28.209Z,10.70
2019-05-10T05:03:56.725Z,10.84
2019-05-10T05:06:25.191Z,10.99
2019-05-10T05:08:53.647Z,11.03
2019-05-10T05:11:22.042Z,10.99
2019-05-10T05:13:50.449Z,10.70
2019-05-10T05:16:18.982Z,11.11
2019-05-10T05:18:47.434Z,11.25
2019-05-10T05:21:15.837Z,11.16
2019-05-10T05:23:44.278Z,11.17
2019-05-10T05:26:12.681Z,10.91
2019-05-10T05:28:41.180Z,11.16
2019-05-10T05:31:09.604Z,11.12
2019-05-10T05:33:37.993Z,11.18
2019-05-10T05:36:06.428Z,11.21
2019-05-10T05:38:40.490Z,11.36
2019-05-10T05:41:04.964Z,11.47
2019-05-10T05:43:33.500Z,11.20
2019-05-10T05:46:01.917Z,11.22
2019-05-10T05:48:40.145Z,11.14
2019-05-10T05:51:00.603Z,11.26
2019-05-10T05:53:29.103Z,11.49
2019-05-10T05:55:57.493Z,11.61
2019-05-10T05:58:27.204Z,11.50
2019-05-10T06:00:55.936Z,11.63
2019-05-10T06:03:29.394Z,11.59
2019-05-10T06:05:54.595Z,11.72
2019-05-10T06:08:24.912Z,11.79
2019-05-10T06:10:57.859Z,11.75
2019-05-10T06:13:30.034Z,11.95
2019-05-10T06:15:53.547Z,11.88
2019-05-10T06:18:22.033Z,12.23
2019-05-10T06:20:50.466Z,12.28
2019-05-10T06:23:18.879Z,12.15
2019-05-10T06:25:47.300Z,12.24
2019-05-10T06:28:26.397Z,12.11
2019-05-10T06:30:45.896Z,12.11
2019-05-10T06:33:14.307Z,12.09
2019-05-10T06:35:42.736Z,12.35
2019-05-10T06:38:11.165Z,12.56
2019-05-10T06:40:46.847Z,12.32
2019-05-10T06:43:13.265Z,12.39
2019-05-10T06:45:39.882Z,12.55
2019-05-10T06:48:08.302Z,12.60
2019-05-10T06:50:36.736Z,12.46
2019-05-10T06:53:11.016Z,12.40
2019-05-10T06:55:35.390Z,12.33
2019-05-10T06:58:03.853Z,12.22
2019-05-10T07:00:32.386Z,12.64
2019-05-10T07:03:00.815Z,12.70
2019-05-10T07:05:29.410Z,12.73
2019-05-10T07:08:00.602Z,12.93
2019-05-10T07:10:27.992Z,12.74
2019-05-10T07:13:03.428Z,12.84
2019-05-10T07:15:26.596Z,13.14
2019-05-10T07:17:54.998Z,13.07
2019-05-10T07:20:28.923Z,13.39
2019-05-10T07:22:53.599Z,13.30
2019-05-10T07:25:22.010Z,13.30
2019-05-10T07:27:50.620Z,13.26
2019-05-10T07:30:30.627Z,13.14
2019-05-10T07:32:59.693Z,13.17
2019-05-10T07:35:31.059Z,13.21
2019-05-10T07:37:59.510Z,13.14
2019-05-10T07:40:28.003Z,13.20
2019-05-10T07:42:56.460Z,13.18
2019-05-10T07:45:25.483Z,13.15
2019-05-10T07:47:55.083Z,13.38
2019-05-10T07:50:23.557Z,13.77
2019-05-10T07:52:51.977Z,13.53
2019-05-10T07:55:28.045Z,13.37
2019-05-10T07:57:50.687Z,13.36
2019-05-10T08:00:19.362Z,13.29
2019-05-10T08:02:52.658Z,13.51
2019-05-10T08:05:18.556Z,13.28
2019-05-10T08:07:49.327Z,13.27
2019-05-10T08:10:18.678Z,13.89
2019-05-10T08:12:48.532Z,14.28
2019-05-10T08:15:19.523Z,14.30
2019-05-10T08:17:50.497Z,13.74
2019-05-10T08:20:33.190Z,13.64
2019-05-10T08:22:47.849Z,13.69
2019-05-10T08:25:16.426Z,13.70
2019-05-10T08:27:50.528Z,13.60
2019-05-10T08:30:28.058Z,13.67
2019-05-10T08:32:48.254Z,13.67
2019-05-10T08:35:18.708Z,13.64
2019-05-10T08:37:46.906Z,14.26
2019-05-10T08:40:19.755Z,14.22
2019-05-10T08:42:54.193Z,14.82
2019-05-10T08:45:16.067Z,14.92
2019-05-10T08:47:44.562Z,14.89
2019-05-10T08:50:29.094Z,15.38
2019-05-10T08:52:43.374Z,15.27
2019-05-10T08:55:12.449Z,15.34
2019-05-10T08:57:44.249Z,14.60
2019-05-10T09:00:13.083Z,15.16
2019-05-10T09:02:42.741Z,15.68
2019-05-10T09:05:12.498Z,16.24
2019-05-10T09:07:43.039Z,15.83
2019-05-10T09:10:12.880Z,15.55
2019-05-10T09:12:50.667Z,14.99
2019-05-10T09:15:13.506Z,15.41
2019-05-10T09:17:43.004Z,15.83
2019-05-10T09:20:20.651Z,15.94
2019-05-10T09:22:42.636Z,15.12
2019-05-10T09:25:12.869Z,15.46
2019-05-10T09:27:43.221Z,14.96
2019-05-10T09:30:14.320Z,14.65
2019-05-10T09:32:43.621Z,14.57
2019-05-10T09:35:12.878Z,14.31
2019-05-10T09:37:42.199Z,14.25
2019-05-10T09:40:13.216Z,15.20
2019-05-10T09:42:43.470Z,14.98
2019-05-10T09:45:12.868Z,15.20
2019-05-10T09:47:43.384Z,16.18
2019-05-10T09:50:12.780Z,15.93
2019-05-10T09:52:41.330Z,15.14
2019-05-10T09:55:14.858Z,14.85
2019-05-10T09:57:40.610Z,15.34
2019-05-10T10:00:10.155Z,17.18
2019-05-10T10:02:40.488Z,17.37
2019-05-10T10:05:09.487Z,17.85
2019-05-10T10:07:38.000Z,18.14
2019-05-10T10:10:07.348Z,18.17
2019-05-10T10:12:37.294Z,18.69
2019-05-10T10:15:09.291Z,18.94
2019-05-10T10:17:41.960Z,18.99
2019-05-10T10:20:08.363Z,17.34
2019-05-10T10:22:38.170Z,16.85
2019-05-10T10:25:07.379Z,16.93
2019-05-10T10:27:39.299Z,18.77
2019-05-10T10:30:12.807Z,19.42
2019-05-10T10:32:37.886Z,18.90
2019-05-10T10:35:07.868Z,18.57
2019-05-10T10:37:37.964Z,19.36
2019-05-10T10:40:08.595Z,19.78
2019-05-10T10:42:38.265Z,20.49
2019-05-10T10:45:08.910Z,20.67
2019-05-10T10:47:38.192Z,19.16
2019-05-10T10:50:13.234Z,18.51
2019-05-10T10:52:39.395Z,18.78
2019-05-10T10:55:11.110Z,20.29
2019-05-10T10:57:39.537Z,20.92
2019-05-10T11:00:10.241Z,19.78
2019-05-10T11:02:41.435Z,20.01
2019-05-10T11:05:09.355Z,19.41
2019-05-10T11:07:41.068Z,20.93
2019-05-10T11:10:16.146Z,21.54
2019-05-10T11:12:41.059Z,20.01
2019-05-10T11:15:11.389Z,21.46
2019-05-10T11:17:40.875Z,21.95
2019-05-10T11:20:11.491Z,22.22
2019-05-10T11:22:42.010Z,22.79
2019-05-10T11:25:12.741Z,22.39
2019-05-10T11:27:41.600Z,20.75
2019-05-10T11:30:12.074Z,19.83
2019-05-10T11:32:41.859Z,20.25
2019-05-10T11:35:11.783Z,19.22
2019-05-10T11:37:44.974Z,18.75
2019-05-10T11:40:11.503Z,18.52
2019-05-10T11:42:45.800Z,18.91
2019-05-10T11:45:11.176Z,19.11
2019-05-10T11:47:40.894Z,18.42
2019-05-10T11:50:10.631Z,18.07
2019-05-10T11:52:40.806Z,18.31
2019-05-10T11:55:11.449Z,18.79
2019-05-10T11:57:43.823Z,18.65
2019-05-10T12:00:24.440Z,18.62
2019-05-10T12:03:01.048Z,18.33
2019-05-10T12:05:19.918Z,18.76
2019-05-10T12:07:45.713Z,18.74
2019-05-10T12:10:20.024Z,18.38
2019-05-10T12:15:13.978Z,18.11
2019-05-10T12:17:43.854Z,17.88
2019-05-10T12:20:16.753Z,17.83
2019-05-10T12:22:47.375Z,17.72
2019-05-10T12:25:36.056Z,17.85
2019-05-10T12:26:50.486Z,18.37
2019-05-10T12:27:48.928Z,17.76
2019-05-10T12:30:16.071Z,17.63
2019-05-10T12:32:55.380Z,17.83
2019-05-10T12:35:15.017Z,17.79
2019-05-10T12:37:46.271Z,17.87
2019-05-10T12:40:15.380Z,18.30
2019-05-10T12:42:47.037Z,18.49
2019-05-10T12:45:16.087Z,18.38
2019-05-10T12:47:44.597Z,17.82
2019-05-10T12:50:14.360Z,17.82
2019-05-10T12:52:43.426Z,17.62
2019-05-10T12:55:12.054Z,17.54
2019-05-10T12:57:43.164Z,17.56
2019-05-10T13:00:13.282Z,17.49
2019-05-10T13:02:44.677Z,17.54
2019-05-10T13:05:15.228Z,17.63
2019-05-10T13:07:41.946Z,17.66
2019-05-10T13:10:12.668Z,17.96
2019-05-10T13:12:44.559Z,18.56
2019-05-10T13:15:11.437Z,18.91
2019-05-10T13:17:44.104Z,18.88
2019-05-10T13:20:11.199Z,19.06
2019-05-10T13:22:39.667Z,18.75
2019-05-10T13:25:08.435Z,18.55
2019-05-10T13:27:36.979Z,18.32
2019-05-10T13:30:07.150Z,18.95
2019-05-10T13:32:35.595Z,18.72
2019-05-10T13:35:04.826Z,19.02
2019-05-10T13:37:33.272Z,19.14
2019-05-10T13:40:05.620Z,19.12
2019-05-10T13:42:36.617Z,19.06
2019-05-10T13:45:02.160Z,18.93
2019-05-10T13:47:30.630Z,18.89
2019-05-10T13:50:00.342Z,18.47
2019-05-10T13:52:37.289Z,18.53
2019-05-10T13:54:58.975Z,18.77
2019-05-10T13:57:27.587Z,18.80
2019-05-10T14:00:02.286Z,18.39
2019-05-10T14:02:34.337Z,18.07
2019-05-10T14:05:00.371Z,17.92
2019-05-10T14:07:53.136Z,17.95
2019-05-10T14:13:17.297Z,18.09
2019-05-10T14:15:48.771Z,18.02
2019-05-10T14:18:17.283Z,17.87
2019-05-10T14:20:45.743Z,17.87
2019-05-10T14:23:17.555Z,17.93
2019-05-10T14:25:44.345Z,17.91
2019-05-10T14:28:15.770Z,17.84
2019-05-10T14:30:46.837Z,17.84
2019-05-10T14:33:14.923Z,17.87
2019-05-10T14:35:43.937Z,17.81
2019-05-10T14:38:12.596Z,17.87
2019-05-10T14:40:40.999Z,18.04
2019-05-10T14:43:09.426Z,18.34
2019-05-10T14:45:37.847Z,18.23
2019-05-10T14:48:06.320Z,18.06
2019-05-10T14:50:34.743Z,17.91
2019-05-10T14:53:03.170Z,17.90
2019-05-10T14:55:34.634Z,17.75
2019-05-10T14:58:02.005Z,17.66
2019-05-10T15:00:30.535Z,17.63
2019-05-10T15:03:02.077Z,17.73
2019-05-10T15:05:29.124Z,17.76
2019-05-10T15:07:57.645Z,17.74
2019-05-10T15:10:26.085Z,17.74
2019-05-10T15:12:54.521Z,17.92
2019-05-10T15:15:22.919Z,18.07
2019-05-10T15:17:55.089Z,18.19
2019-05-10T15:20:21.686Z,18.07
2019-05-10T15:22:50.093Z,18.20
2019-05-10T15:25:18.641Z,18.21
2019-05-10T15:27:47.078Z,17.94
2019-05-10T15:30:15.834Z,17.86
2019-05-10T15:32:44.229Z,17.73
2019-05-10T15:35:12.905Z,17.82
2019-05-10T15:37:46.412Z,17.81
2019-05-10T15:40:11.856Z,17.84
2019-05-10T15:42:40.299Z,17.76
2019-05-10T15:45:14.729Z,17.89
2019-05-10T15:47:50.698Z,17.94
2019-05-10T15:50:10.564Z,17.81
2019-05-10T15:52:45.676Z,17.80
2019-05-10T15:55:09.410Z,17.72
2019-05-10T15:57:37.797Z,17.80
2019-05-10T16:00:08.365Z,17.91
2019-05-10T16:02:36.819Z,17.90
2019-05-10T16:05:23.319Z,17.82
2019-05-10T16:07:38.559Z,17.79
2019-05-10T16:10:07.464Z,17.82
2019-05-10T16:12:37.795Z,17.75
2019-05-10T16:15:07.188Z,17.64
2019-05-10T16:17:35.895Z,17.59
2019-05-10T16:20:06.157Z,17.56
2019-05-10T16:22:34.619Z,17.58
2019-05-10T16:25:03.206Z,17.59
2019-05-10T16:27:33.944Z,17.49
2019-05-10T16:30:01.789Z,17.47
2019-05-10T16:32:34.457Z,17.43
2019-05-10T16:35:05.602Z,17.42
2019-05-10T16:37:30.671Z,17.40
2019-05-10T16:39:59.093Z,17.40
2019-05-10T16:42:33.685Z,17.37
2019-05-10T16:44:57.707Z,17.45
2019-05-10T16:47:26.173Z,17.47
2019-05-10T16:49:55.176Z,17.50
2019-05-10T16:52:26.161Z,17.50
2019-05-10T16:54:57.993Z,17.44
2019-05-10T16:57:24.144Z,17.34
2019-05-10T16:59:52.613Z,17.23
2019-05-10T17:02:21.108Z,17.16
2019-05-10T17:04:49.532Z,17.10
2019-05-10T17:07:18.819Z,17.07
2019-05-10T17:09:49.622Z,17.00
2019-05-10T17:12:22.096Z,16.98
2019-05-10T17:14:50.568Z,17.02
2019-05-10T17:17:18.867Z,17.03
2019-05-10T17:19:47.311Z,17.03
2019-05-10T17:22:15.739Z,17.02
2019-05-10T17:24:44.248Z,17.03
2019-05-10T17:27:12.713Z,17.14
2019-05-10T17:29:44.496Z,17.16
2019-05-10T17:32:11.410Z,17.04
2019-05-10T17:34:39.894Z,17.00
2019-05-10T17:37:08.331Z,16.95
2019-05-10T17:39:36.820Z,16.89
2019-05-10T17:42:05.236Z,16.85
2019-05-10T17:44:33.684Z,16.73
2019-05-10T17:47:02.139Z,16.74
2019-05-10T17:49:30.559Z,16.60
2019-05-10T17:51:59.013Z,16.56
2019-05-10T17:54:27.431Z,16.63
2019-05-10T17:56:55.922Z,16.67
2019-05-10T17:59:24.429Z,16.65
2019-05-10T18:01:52.876Z,16.58
2019-05-10T18:04:21.301Z,16.58
2019-05-10T18:06:49.984Z,16.59
2019-05-10T18:09:18.419Z,16.52
2019-05-10T18:11:46.924Z,16.51
2019-05-10T18:14:18.060Z,16.47
2019-05-10T18:16:48.329Z,16.32
2019-05-10T18:19:19.039Z,16.27
2019-05-10T18:21:45.902Z,16.21
2019-05-10T18:24:14.345Z,16.16
2019-05-10T18:26:42.803Z,16.15
2019-05-10T18:29:11.334Z,16.24
2019-05-10T18:31:39.846Z,16.03
2019-05-10T18:34:08.304Z,15.96
2019-05-10T18:36:51.286Z,15.90
2019-05-10T18:39:09.246Z,15.99
2019-05-10T18:41:41.460Z,15.91
2019-05-10T18:44:14.154Z,15.82
2019-05-10T18:46:43.615Z,15.79
2019-05-10T18:49:12.163Z,15.66
2019-05-10T18:51:40.640Z,15.70
2019-05-10T18:54:09.203Z,15.56
2019-05-10T18:56:37.638Z,15.69
2019-05-10T18:59:07.453Z,15.58
2019-05-10T19:01:38.817Z,15.69
2019-05-10T19:04:07.236Z,15.41
2019-05-10T19:06:36.611Z,15.40
2019-05-10T19:09:06.594Z,15.39
2019-05-10T19:11:38.941Z,15.29
2019-05-10T19:14:05.465Z,15.28
2019-05-10T19:16:34.376Z,15.34
2019-05-10T19:19:03.666Z,15.30
2019-05-10T19:21:32.703Z,15.21
2019-05-10T19:24:01.136Z,15.36
2019-05-10T19:26:31.614Z,15.34
2019-05-10T19:29:04.989Z,15.23
2019-05-10T19:31:31.688Z,15.43
2019-05-10T19:34:00.014Z,15.27
2019-05-10T19:36:30.282Z,15.20
2019-05-10T19:38:58.632Z,15.31
2019-05-10T19:41:27.243Z,15.20
2019-05-10T19:45:43.219Z,15.14
2019-05-10T19:46:30.187Z,15.13
2019-05-10T19:48:56.110Z,15.17
2019-05-10T19:51:24.507Z,15.26
2019-05-10T19:53:52.957Z,15.32
2019-05-10T19:56:21.374Z,15.28
2019-05-10T19:58:49.801Z,15.23
2019-05-10T20:01:18.356Z,15.18
2019-05-10T20:03:46.758Z,15.22
2019-05-10T20:06:15.175Z,15.01
2019-05-10T20:08:43.592Z,15.18
2019-05-10T20:11:12.091Z,15.14
2019-05-10T20:13:40.584Z,15.12
2019-05-10T20:16:09.088Z,15.15
2019-05-10T20:18:37.614Z,15.14
2019-05-10T20:21:06.427Z,14.88
2019-05-10T20:23:34.941Z,14.96
2019-05-10T20:26:03.460Z,14.98
2019-05-10T20:28:31.871Z,14.81
2019-05-10T20:31:00.308Z,14.82
2019-05-10T20:33:28.787Z,14.83
2019-05-10T20:35:57.295Z,14.92
2019-05-10T20:38:25.707Z,14.90
2019-05-10T20:40:56.940Z,14.83
2019-05-10T20:43:25.355Z,14.79
2019-05-10T20:45:53.905Z,14.89
2019-05-10T20:48:22.435Z,14.95
2019-05-10T20:50:50.839Z,14.75
2019-05-10T20:53:19.419Z,14.82
2019-05-10T20:55:47.905Z,14.81
2019-05-10T20:58:16.308Z,14.84
2019-05-10T21:00:45.087Z,14.86
2019-05-10T21:03:14.166Z,14.82
2019-05-10T21:05:42.597Z,14.65
2019-05-10T21:08:17.044Z,14.81
2019-05-10T21:10:41.215Z,14.73
2019-05-10T21:13:09.663Z,14.75
2019-05-10T21:15:38.117Z,14.73
2019-05-10T21:18:06.543Z,14.54
2019-05-10T21:20:35.075Z,14.40
2019-05-10T21:23:03.484Z,14.58
2019-05-10T21:25:31.917Z,14.69
2019-05-10T21:28:00.412Z,14.42
2019-05-10T21:30:28.840Z,14.26
2019-05-10T21:32:57.300Z,14.39
2019-05-10T21:35:25.722Z,14.49
2019-05-10T21:37:54.205Z,14.34
2019-05-10T21:40:22.648Z,14.40
2019-05-10T21:42:51.093Z,14.37
2019-05-10T21:45:19.538Z,14.36
2019-05-10T21:47:51.587Z,14.36
2019-05-10T21:50:18.676Z,14.19
2019-05-10T21:52:47.118Z,14.02
2019-05-10T21:55:15.532Z,14.07
2019-05-10T21:57:43.980Z,14.23
2019-05-10T22:00:12.996Z,14.19
2019-05-10T22:02:41.476Z,14.13
2019-05-10T22:05:09.911Z,14.02
2019-05-10T22:07:38.328Z,14.17
2019-05-10T22:10:07.722Z,14.15
2019-05-10T22:12:36.233Z,14.05
2019-05-10T22:15:06.114Z,14.07
2019-05-10T22:17:34.533Z,13.84
2019-05-10T22:20:03.819Z,14.02
2019-05-10T22:22:32.244Z,14.08
2019-05-10T22:25:00.653Z,13.90
2019-05-10T22:27:29.126Z,13.86
2019-05-10T22:29:57.581Z,13.86
2019-05-10T22:32:26.000Z,14.12
2019-05-10T22:34:54.483Z,14.03
2019-05-10T22:37:22.911Z,14.26
2019-05-10T22:39:51.342Z,13.99
2019-05-10T22:42:19.766Z,14.01
2019-05-10T22:44:48.170Z,14.05
2019-05-10T22:47:16.695Z,13.87
2019-05-10T22:49:46.771Z,13.94
2019-05-10T22:52:15.192Z,13.98
2019-05-10T22:54:43.609Z,13.92
2019-05-10T22:57:12.091Z,13.91
2019-05-10T22:59:40.524Z,13.84
2019-05-10T23:02:09.038Z,13.80
2019-05-10T23:04:37.475Z,13.80
2019-05-10T23:07:05.870Z,13.91
2019-05-10T23:09:34.377Z,13.74
2019-05-10T23:12:02.820Z,13.61
2019-05-10T23:14:31.257Z,13.85
2019-05-10T23:17:00.054Z,13.70
2019-05-10T23:19:28.500Z,13.53
2019-05-10T23:21:56.906Z,13.71
2019-05-10T23:24:27.090Z,13.39
2019-05-10T23:26:55.532Z,13.34
2019-05-10T23:29:23.944Z,13.39
2019-05-10T23:31:52.368Z,13.28
2019-05-10T23:34:20.819Z,13.16
2019-05-10T23:36:49.311Z,13.14
2019-05-10T23:39:17.749Z,13.03
2019-05-10T23:41:46.239Z,13.29
2019-05-10T23:44:14.628Z,13.29
2019-05-10T23:46:43.101Z,13.28
2019-05-10T23:49:11.633Z,13.22
2019-05-10T23:51:40.045Z,13.16
2019-05-10T23:54:08.584Z,13.33
2019-05-10T23:56:37.077Z,13.23
2019-05-10T23:59:05.582Z,13.49
